sensor_id;sensor_type;location;lat;lon;timestamp;P1;durP1;ratioP1;P2;durP2;ratioP2
26598;SDS011;14240;51.064;16.612;2023-05-08T00:00:19;10.90;;;6.18;;
26598;SDS011;14240;51.064;16.612;2023-05-08T00:02:45;14.82;;;6.63;;
26598;SDS011;14240;51.064;16.612;2023-05-08T00:05:10;11.20;;;6.45;;
26598;SDS011;14240;51.064;16.612;2023-05-08T00:07:36;12.48;;;6.85;;
26598;SDS011;14240;51.064;16.612;2023-05-08T00:10:03;9.70;;;6.40;;
26598;SDS011;14240;51.064;16.612;2023-05-08T00:12:30;14.43;;;7.30;;
26598;SDS011;14240;51.064;16.612;2023-05-08T00:14:56;9.88;;;7.28;;
26598;SDS011;14240;51.064;16.612;2023-05-08T00:17:22;11.57;;;6.47;;
26598;SDS011;14240;51.064;16.612;2023-05-08T00:19:48;15.50;;;7.30;;
26598;SDS011;14240;51.064;16.612;2023-05-08T00:22:13;12.95;;;7.60;;
26598;SDS011;14240;51.064;16.612;2023-05-08T00:24:39;10.90;;;6.80;;
26598;SDS011;14240;51.064;16.612;2023-05-08T00:27:05;13.35;;;7.38;;
26598;SDS011;14240;51.064;16.612;2023-05-08T00:29:32;14.07;;;7.13;;
26598;SDS011;14240;51.064;16.612;2023-05-08T00:31:58;14.02;;;7.20;;
26598;SDS011;14240;51.064;16.612;2023-05-08T00:34:24;11.70;;;8.02;;
26598;SDS011;14240;51.064;16.612;2023-05-08T00:36:50;14.02;;;7.68;;
26598;SDS011;14240;51.064;16.612;2023-05-08T00:39:16;13.60;;;6.25;;
26598;SDS011;14240;51.064;16.612;2023-05-08T00:41:42;14.05;;;6.90;;
26598;SDS011;14240;51.064;16.612;2023-05-08T00:44:08;12.65;;;8.30;;
26598;SDS011;14240;51.064;16.612;2023-05-08T00:46:34;12.48;;;7.40;;
26598;SDS011;14240;51.064;16.612;2023-05-08T00:49:01;15.50;;;7.57;;
26598;SDS011;14240;51.064;16.612;2023-05-08T00:53:54;11.95;;;6.63;;
26598;SDS011;14240;51.064;16.612;2023-05-08T00:56:19;11.43;;;6.28;;
26598;SDS011;14240;51.064;16.612;2023-05-08T00:58:48;14.45;;;7.32;;
26598;SDS011;14240;51.064;16.612;2023-05-08T01:01:14;12.13;;;6.18;;
26598;SDS011;14240;51.064;16.612;2023-05-08T01:03:41;13.90;;;7.15;;
26598;SDS011;14240;51.064;16.612;2023-05-08T01:06:07;20.92;;;11.60;;
26598;SDS011;14240;51.064;16.612;2023-05-08T01:08:33;13.45;;;7.93;;
26598;SDS011;14240;51.064;16.612;2023-05-08T01:16:33;11.23;;;7.25;;
26598;SDS011;14240;51.064;16.612;2023-05-08T01:33:16;10.77;;;6.73;;
26598;SDS011;14240;51.064;16.612;2023-05-08T01:35:52;9.90;;;6.88;;
26598;SDS011;14240;51.064;16.612;2023-05-08T01:38:29;10.30;;;6.78;;
26598;SDS011;14240;51.064;16.612;2023-05-08T01:41:24;10.57;;;6.75;;
26598;SDS011;14240;51.064;16.612;2023-05-08T01:43:51;16.50;;;7.72;;
26598;SDS011;14240;51.064;16.612;2023-05-08T01:46:25;14.73;;;6.90;;
26598;SDS011;14240;51.064;16.612;2023-05-08T01:51:26;10.88;;;6.70;;
26598;SDS011;14240;51.064;16.612;2023-05-08T01:53:58;15.68;;;7.45;;
26598;SDS011;14240;51.064;16.612;2023-05-08T01:56:28;12.80;;;7.88;;
26598;SDS011;14240;51.064;16.612;2023-05-08T01:58:55;15.85;;;8.32;;
26598;SDS011;14240;51.064;16.612;2023-05-08T02:01:23;14.18;;;8.60;;
26598;SDS011;14240;51.064;16.612;2023-05-08T02:06:17;14.65;;;8.52;;
26598;SDS011;14240;51.064;16.612;2023-05-08T02:08:46;13.43;;;8.00;;
26598;SDS011;14240;51.064;16.612;2023-05-08T02:11:13;17.57;;;8.83;;
26598;SDS011;14240;51.064;16.612;2023-05-08T02:13:40;16.00;;;8.75;;
26598;SDS011;14240;51.064;16.612;2023-05-08T02:16:09;16.10;;;9.35;;
26598;SDS011;14240;51.064;16.612;2023-05-08T02:18:37;19.85;;;9.43;;
26598;SDS011;14240;51.064;16.612;2023-05-08T02:21:04;16.25;;;9.10;;
26598;SDS011;14240;51.064;16.612;2023-05-08T02:23:31;19.00;;;9.60;;
26598;SDS011;14240;51.064;16.612;2023-05-08T02:25:58;17.77;;;9.23;;
26598;SDS011;14240;51.064;16.612;2023-05-08T02:30:52;19.17;;;10.20;;
26598;SDS011;14240;51.064;16.612;2023-05-08T02:33:18;17.95;;;9.85;;
26598;SDS011;14240;51.064;16.612;2023-05-08T02:35:45;18.00;;;10.00;;
26598;SDS011;14240;51.064;16.612;2023-05-08T02:38:13;17.13;;;11.05;;
26598;SDS011;14240;51.064;16.612;2023-05-08T02:40:41;20.80;;;10.43;;
26598;SDS011;14240;51.064;16.612;2023-05-08T02:43:10;19.40;;;9.32;;
26598;SDS011;14240;51.064;16.612;2023-05-08T02:45:44;23.65;;;10.30;;
26598;SDS011;14240;51.064;16.612;2023-05-08T02:48:30;22.58;;;10.32;;
26598;SDS011;14240;51.064;16.612;2023-05-08T02:53:54;17.17;;;9.90;;
26598;SDS011;14240;51.064;16.612;2023-05-08T03:04:35;20.08;;;10.80;;
26598;SDS011;14240;51.064;16.612;2023-05-08T03:07:04;19.85;;;10.65;;
26598;SDS011;14240;51.064;16.612;2023-05-08T03:09:43;19.95;;;10.68;;
26598;SDS011;14240;51.064;16.612;2023-05-08T03:12:13;20.95;;;11.32;;
26598;SDS011;14240;51.064;16.612;2023-05-08T03:14:46;18.15;;;11.23;;
26598;SDS011;14240;51.064;16.612;2023-05-08T03:17:31;26.77;;;13.20;;
26598;SDS011;14240;51.064;16.612;2023-05-08T03:20:03;26.55;;;14.15;;
26598;SDS011;14240;51.064;16.612;2023-05-08T03:22:31;19.27;;;11.27;;
26598;SDS011;14240;51.064;16.612;2023-05-08T03:25:01;21.98;;;10.90;;
26598;SDS011;14240;51.064;16.612;2023-05-08T03:27:30;33.78;;;14.93;;
26598;SDS011;14240;51.064;16.612;2023-05-08T03:29:57;44.67;;;18.98;;
26598;SDS011;14240;51.064;16.612;2023-05-08T03:32:26;29.95;;;13.60;;
26598;SDS011;14240;51.064;16.612;2023-05-08T03:34:53;39.65;;;16.80;;
26598;SDS011;14240;51.064;16.612;2023-05-08T03:37:22;25.40;;;12.65;;
26598;SDS011;14240;51.064;16.612;2023-05-08T03:39:49;30.98;;;16.88;;
26598;SDS011;14240;51.064;16.612;2023-05-08T03:42:15;23.67;;;14.60;;
26598;SDS011;14240;51.064;16.612;2023-05-08T03:44:49;24.77;;;14.40;;
26598;SDS011;14240;51.064;16.612;2023-05-08T03:47:16;19.08;;;10.55;;
26598;SDS011;14240;51.064;16.612;2023-05-08T03:52:10;23.30;;;11.55;;
26598;SDS011;14240;51.064;16.612;2023-05-08T03:54:36;27.73;;;13.63;;
26598;SDS011;14240;51.064;16.612;2023-05-08T03:57:02;32.58;;;14.77;;
26598;SDS011;14240;51.064;16.612;2023-05-08T04:02:20;33.38;;;15.18;;
26598;SDS011;14240;51.064;16.612;2023-05-08T04:10:54;22.02;;;10.63;;
26598;SDS011;14240;51.064;16.612;2023-05-08T04:13:42;21.30;;;10.98;;
26598;SDS011;14240;51.064;16.612;2023-05-08T04:16:19;20.48;;;11.52;;
26598;SDS011;14240;51.064;16.612;2023-05-08T04:18:49;24.45;;;11.25;;
26598;SDS011;14240;51.064;16.612;2023-05-08T04:21:19;27.08;;;11.07;;
26598;SDS011;14240;51.064;16.612;2023-05-08T04:23:49;21.30;;;10.43;;
26598;SDS011;14240;51.064;16.612;2023-05-08T04:26:16;19.83;;;10.75;;
26598;SDS011;14240;51.064;16.612;2023-05-08T04:28:43;16.90;;;10.25;;
26598;SDS011;14240;51.064;16.612;2023-05-08T04:33:37;15.48;;;9.73;;
26598;SDS011;14240;51.064;16.612;2023-05-08T04:36:03;16.17;;;9.38;;
26598;SDS011;14240;51.064;16.612;2023-05-08T04:38:30;16.05;;;9.18;;
26598;SDS011;14240;51.064;16.612;2023-05-08T04:40:55;15.00;;;8.57;;
26598;SDS011;14240;51.064;16.612;2023-05-08T04:43:21;14.60;;;9.05;;
26598;SDS011;14240;51.064;16.612;2023-05-08T04:45:47;15.38;;;8.73;;
26598;SDS011;14240;51.064;16.612;2023-05-08T04:48:13;18.00;;;10.85;;
26598;SDS011;14240;51.064;16.612;2023-05-08T04:50:38;15.10;;;9.45;;
26598;SDS011;14240;51.064;16.612;2023-05-08T04:53:04;16.50;;;9.40;;
26598;SDS011;14240;51.064;16.612;2023-05-08T04:55:30;16.70;;;9.93;;
26598;SDS011;14240;51.064;16.612;2023-05-08T04:57:56;14.10;;;8.55;;
26598;SDS011;14240;51.064;16.612;2023-05-08T05:00:22;13.10;;;8.68;;
26598;SDS011;14240;51.064;16.612;2023-05-08T05:02:47;20.95;;;9.50;;
26598;SDS011;14240;51.064;16.612;2023-05-08T05:05:13;13.90;;;9.23;;
26598;SDS011;14240;51.064;16.612;2023-05-08T05:07:39;14.38;;;9.68;;
26598;SDS011;14240;51.064;16.612;2023-05-08T05:10:05;14.75;;;9.20;;
26598;SDS011;14240;51.064;16.612;2023-05-08T05:12:31;14.70;;;8.70;;
26598;SDS011;14240;51.064;16.612;2023-05-08T05:14:57;14.05;;;8.80;;
26598;SDS011;14240;51.064;16.612;2023-05-08T05:17:22;12.77;;;9.18;;
26598;SDS011;14240;51.064;16.612;2023-05-08T05:19:48;17.73;;;9.25;;
26598;SDS011;14240;51.064;16.612;2023-05-08T05:22:14;13.48;;;9.43;;
26598;SDS011;14240;51.064;16.612;2023-05-08T05:24:39;14.80;;;9.70;;
26598;SDS011;14240;51.064;16.612;2023-05-08T05:27:05;14.52;;;9.95;;
26598;SDS011;14240;51.064;16.612;2023-05-08T05:29:31;11.32;;;7.57;;
26598;SDS011;14240;51.064;16.612;2023-05-08T05:31:56;10.38;;;7.80;;
26598;SDS011;14240;51.064;16.612;2023-05-08T05:34:22;11.20;;;7.65;;
26598;SDS011;14240;51.064;16.612;2023-05-08T05:36:48;8.40;;;6.55;;
26598;SDS011;14240;51.064;16.612;2023-05-08T05:39:13;8.48;;;6.75;;
26598;SDS011;14240;51.064;16.612;2023-05-08T05:41:39;12.77;;;7.22;;
26598;SDS011;14240;51.064;16.612;2023-05-08T05:44:08;8.73;;;7.05;;
26598;SDS011;14240;51.064;16.612;2023-05-08T05:46:33;7.13;;;5.65;;
26598;SDS011;14240;51.064;16.612;2023-05-08T05:48:59;9.13;;;5.97;;
26598;SDS011;14240;51.064;16.612;2023-05-08T05:51:25;10.07;;;6.60;;
26598;SDS011;14240;51.064;16.612;2023-05-08T05:53:51;8.75;;;6.38;;
26598;SDS011;14240;51.064;16.612;2023-05-08T05:56:17;8.00;;;6.10;;
26598;SDS011;14240;51.064;16.612;2023-05-08T05:58:43;13.60;;;6.15;;
26598;SDS011;14240;51.064;16.612;2023-05-08T06:01:12;11.25;;;6.85;;
26598;SDS011;14240;51.064;16.612;2023-05-08T06:03:38;9.95;;;6.57;;
26598;SDS011;14240;51.064;16.612;2023-05-08T06:06:04;9.45;;;6.38;;
26598;SDS011;14240;51.064;16.612;2023-05-08T06:08:30;8.57;;;5.80;;
26598;SDS011;14240;51.064;16.612;2023-05-08T06:10:55;10.48;;;7.10;;
26598;SDS011;14240;51.064;16.612;2023-05-08T06:13:22;8.45;;;6.30;;
26598;SDS011;14240;51.064;16.612;2023-05-08T06:15:48;8.98;;;6.40;;
26598;SDS011;14240;51.064;16.612;2023-05-08T06:18:17;35.45;;;20.08;;
26598;SDS011;14240;51.064;16.612;2023-05-08T06:20:44;11.10;;;6.47;;
26598;SDS011;14240;51.064;16.612;2023-05-08T06:23:10;7.40;;;5.80;;
26598;SDS011;14240;51.064;16.612;2023-05-08T06:25:36;8.95;;;5.93;;
26598;SDS011;14240;51.064;16.612;2023-05-08T06:28:01;6.30;;;5.10;;
26598;SDS011;14240;51.064;16.612;2023-05-08T06:30:30;5.93;;;4.75;;
26598;SDS011;14240;51.064;16.612;2023-05-08T06:32:57;7.35;;;5.65;;
26598;SDS011;14240;51.064;16.612;2023-05-08T06:35:27;7.72;;;5.72;;
26598;SDS011;14240;51.064;16.612;2023-05-08T06:37:58;7.97;;;5.65;;
26598;SDS011;14240;51.064;16.612;2023-05-08T06:40:25;7.00;;;4.78;;
26598;SDS011;14240;51.064;16.612;2023-05-08T06:42:56;7.43;;;5.10;;
26598;SDS011;14240;51.064;16.612;2023-05-08T06:45:22;8.70;;;5.13;;
26598;SDS011;14240;51.064;16.612;2023-05-08T06:47:48;7.47;;;5.57;;
26598;SDS011;14240;51.064;16.612;2023-05-08T06:50:14;7.07;;;5.60;;
26598;SDS011;14240;51.064;16.612;2023-05-08T06:52:48;8.77;;;6.28;;
26598;SDS011;14240;51.064;16.612;2023-05-08T06:55:18;9.52;;;5.25;;
26598;SDS011;14240;51.064;16.612;2023-05-08T06:57:44;10.17;;;6.27;;
26598;SDS011;14240;51.064;16.612;2023-05-08T07:00:10;7.70;;;5.32;;
26598;SDS011;14240;51.064;16.612;2023-05-08T07:02:36;7.55;;;5.07;;
26598;SDS011;14240;51.064;16.612;2023-05-08T07:05:02;9.57;;;5.88;;
26598;SDS011;14240;51.064;16.612;2023-05-08T07:07:28;45.30;;;26.73;;
26598;SDS011;14240;51.064;16.612;2023-05-08T07:09:54;9.60;;;6.93;;
26598;SDS011;14240;51.064;16.612;2023-05-08T07:12:19;7.18;;;5.78;;
26598;SDS011;14240;51.064;16.612;2023-05-08T07:14:45;9.60;;;6.25;;
26598;SDS011;14240;51.064;16.612;2023-05-08T07:17:11;6.28;;;5.28;;
26598;SDS011;14240;51.064;16.612;2023-05-08T07:19:36;9.27;;;5.32;;
26598;SDS011;14240;51.064;16.612;2023-05-08T07:22:03;9.85;;;5.88;;
26598;SDS011;14240;51.064;16.612;2023-05-08T07:24:29;6.82;;;5.22;;
26598;SDS011;14240;51.064;16.612;2023-05-08T07:26:55;6.82;;;6.13;;
26598;SDS011;14240;51.064;16.612;2023-05-08T07:29:21;6.70;;;5.22;;
26598;SDS011;14240;51.064;16.612;2023-05-08T07:31:46;7.25;;;4.88;;
26598;SDS011;14240;51.064;16.612;2023-05-08T07:34:12;7.25;;;4.53;;
26598;SDS011;14240;51.064;16.612;2023-05-08T07:36:39;6.35;;;4.85;;
26598;SDS011;14240;51.064;16.612;2023-05-08T07:39:04;8.50;;;4.50;;
26598;SDS011;14240;51.064;16.612;2023-05-08T07:41:30;6.60;;;4.72;;
26598;SDS011;14240;51.064;16.612;2023-05-08T07:43:56;5.93;;;5.00;;
26598;SDS011;14240;51.064;16.612;2023-05-08T07:46:22;9.45;;;5.47;;
26598;SDS011;14240;51.064;16.612;2023-05-08T07:48:47;7.85;;;4.95;;
26598;SDS011;14240;51.064;16.612;2023-05-08T07:51:13;6.47;;;5.63;;
26598;SDS011;14240;51.064;16.612;2023-05-08T07:53:39;6.88;;;5.15;;
26598;SDS011;14240;51.064;16.612;2023-05-08T07:56:05;8.45;;;5.40;;
26598;SDS011;14240;51.064;16.612;2023-05-08T07:58:31;7.75;;;6.30;;
26598;SDS011;14240;51.064;16.612;2023-05-08T08:00:57;9.15;;;5.63;;
26598;SDS011;14240;51.064;16.612;2023-05-08T08:03:22;6.07;;;5.47;;
26598;SDS011;14240;51.064;16.612;2023-05-08T08:05:48;6.68;;;5.57;;
26598;SDS011;14240;51.064;16.612;2023-05-08T08:08:14;7.15;;;4.78;;
26598;SDS011;14240;51.064;16.612;2023-05-08T08:10:39;6.50;;;4.65;;
26598;SDS011;14240;51.064;16.612;2023-05-08T08:13:05;6.13;;;4.53;;
26598;SDS011;14240;51.064;16.612;2023-05-08T08:15:31;7.28;;;4.90;;
26598;SDS011;14240;51.064;16.612;2023-05-08T08:17:57;6.75;;;5.00;;
26598;SDS011;14240;51.064;16.612;2023-05-08T08:20:22;6.55;;;4.00;;
26598;SDS011;14240;51.064;16.612;2023-05-08T08:22:48;7.30;;;4.45;;
26598;SDS011;14240;51.064;16.612;2023-05-08T08:25:14;7.25;;;4.65;;
26598;SDS011;14240;51.064;16.612;2023-05-08T08:27:39;4.07;;;3.63;;
26598;SDS011;14240;51.064;16.612;2023-05-08T08:30:05;3.70;;;3.35;;
26598;SDS011;14240;51.064;16.612;2023-05-08T08:32:31;5.20;;;4.40;;
26598;SDS011;14240;51.064;16.612;2023-05-08T08:34:57;6.28;;;4.30;;
26598;SDS011;14240;51.064;16.612;2023-05-08T08:37:23;6.68;;;3.92;;
26598;SDS011;14240;51.064;16.612;2023-05-08T08:39:50;6.40;;;3.95;;
26598;SDS011;14240;51.064;16.612;2023-05-08T08:42:15;6.32;;;3.88;;
26598;SDS011;14240;51.064;16.612;2023-05-08T08:44:41;5.32;;;4.18;;
26598;SDS011;14240;51.064;16.612;2023-05-08T08:47:08;6.03;;;4.18;;
26598;SDS011;14240;51.064;16.612;2023-05-08T08:49:39;5.15;;;4.20;;
26598;SDS011;14240;51.064;16.612;2023-05-08T08:52:30;8.10;;;4.55;;
26598;SDS011;14240;51.064;16.612;2023-05-08T08:55:02;5.28;;;4.10;;
26598;SDS011;14240;51.064;16.612;2023-05-08T08:57:32;5.47;;;4.78;;
26598;SDS011;14240;51.064;16.612;2023-05-08T09:00:02;6.32;;;4.13;;
26598;SDS011;14240;51.064;16.612;2023-05-08T09:02:33;6.05;;;4.13;;
26598;SDS011;14240;51.064;16.612;2023-05-08T09:04:59;6.97;;;4.93;;
26598;SDS011;14240;51.064;16.612;2023-05-08T09:07:25;5.60;;;4.40;;
26598;SDS011;14240;51.064;16.612;2023-05-08T09:09:51;8.20;;;4.10;;
26598;SDS011;14240;51.064;16.612;2023-05-08T09:12:17;5.03;;;4.47;;
26598;SDS011;14240;51.064;16.612;2023-05-08T09:14:43;6.43;;;4.18;;
26598;SDS011;14240;51.064;16.612;2023-05-08T09:17:08;6.20;;;4.40;;
26598;SDS011;14240;51.064;16.612;2023-05-08T09:19:34;4.78;;;3.90;;
26598;SDS011;14240;51.064;16.612;2023-05-08T09:22:00;5.60;;;4.10;;
26598;SDS011;14240;51.064;16.612;2023-05-08T09:27:23;6.72;;;3.97;;
26598;SDS011;14240;51.064;16.612;2023-05-08T09:30:00;7.15;;;4.10;;
26598;SDS011;14240;51.064;16.612;2023-05-08T09:32:40;6.72;;;4.13;;
26598;SDS011;14240;51.064;16.612;2023-05-08T09:35:08;7.22;;;4.18;;
26598;SDS011;14240;51.064;16.612;2023-05-08T09:37:38;7.20;;;4.22;;
26598;SDS011;14240;51.064;16.612;2023-05-08T09:40:12;6.60;;;4.60;;
26598;SDS011;14240;51.064;16.612;2023-05-08T09:42:41;5.30;;;4.20;;
26598;SDS011;14240;51.064;16.612;2023-05-08T09:45:06;9.20;;;5.93;;
26598;SDS011;14240;51.064;16.612;2023-05-08T09:47:33;6.60;;;4.60;;
26598;SDS011;14240;51.064;16.612;2023-05-08T09:50:07;8.18;;;5.10;;
26598;SDS011;14240;51.064;16.612;2023-05-08T09:52:35;8.18;;;4.72;;
26598;SDS011;14240;51.064;16.612;2023-05-08T09:55:05;6.35;;;4.40;;
26598;SDS011;14240;51.064;16.612;2023-05-08T09:57:33;7.35;;;5.00;;
26598;SDS011;14240;51.064;16.612;2023-05-08T10:00:11;8.75;;;5.07;;
26598;SDS011;14240;51.064;16.612;2023-05-08T10:02:39;7.32;;;5.50;;
26598;SDS011;14240;51.064;16.612;2023-05-08T10:05:22;8.40;;;5.95;;
26598;SDS011;14240;51.064;16.612;2023-05-08T10:07:53;9.70;;;5.00;;
26598;SDS011;14240;51.064;16.612;2023-05-08T10:10:22;5.80;;;4.78;;
26598;SDS011;14240;51.064;16.612;2023-05-08T10:12:50;9.15;;;4.97;;
26598;SDS011;14240;51.064;16.612;2023-05-08T10:15:17;7.40;;;5.75;;
26598;SDS011;14240;51.064;16.612;2023-05-08T10:20:27;7.30;;;5.28;;
26598;SDS011;14240;51.064;16.612;2023-05-08T10:22:55;6.72;;;5.57;;
26598;SDS011;14240;51.064;16.612;2023-05-08T10:25:21;8.20;;;5.18;;
26598;SDS011;14240;51.064;16.612;2023-05-08T10:27:51;6.70;;;5.22;;
26598;SDS011;14240;51.064;16.612;2023-05-08T10:30:25;9.18;;;6.07;;
26598;SDS011;14240;51.064;16.612;2023-05-08T10:32:51;7.40;;;5.43;;
26598;SDS011;14240;51.064;16.612;2023-05-08T10:35:20;7.75;;;5.45;;
26598;SDS011;14240;51.064;16.612;2023-05-08T10:37:48;10.77;;;5.63;;
26598;SDS011;14240;51.064;16.612;2023-05-08T10:40:14;7.50;;;6.23;;
26598;SDS011;14240;51.064;16.612;2023-05-08T10:42:40;13.20;;;6.20;;
26598;SDS011;14240;51.064;16.612;2023-05-08T10:45:06;6.78;;;5.50;;
26598;SDS011;14240;51.064;16.612;2023-05-08T10:50:37;8.10;;;6.03;;
26598;SDS011;14240;51.064;16.612;2023-05-08T10:53:28;9.85;;;5.88;;
26598;SDS011;14240;51.064;16.612;2023-05-08T10:55:55;7.72;;;6.32;;
26598;SDS011;14240;51.064;16.612;2023-05-08T10:58:28;10.32;;;6.85;;
26598;SDS011;14240;51.064;16.612;2023-05-08T11:03:30;8.65;;;6.15;;
26598;SDS011;14240;51.064;16.612;2023-05-08T11:05:58;8.55;;;6.32;;
26598;SDS011;14240;51.064;16.612;2023-05-08T11:08:27;9.27;;;6.03;;
26598;SDS011;14240;51.064;16.612;2023-05-08T11:15:58;10.68;;;6.90;;
26598;SDS011;14240;51.064;16.612;2023-05-08T11:18:25;9.65;;;6.32;;
26598;SDS011;14240;51.064;16.612;2023-05-08T11:23:30;7.22;;;6.18;;
26598;SDS011;14240;51.064;16.612;2023-05-08T11:28:27;10.38;;;6.53;;
26598;SDS011;14240;51.064;16.612;2023-05-08T11:30:55;9.70;;;7.00;;
26598;SDS011;14240;51.064;16.612;2023-05-08T11:33:21;9.70;;;6.03;;
26598;SDS011;14240;51.064;16.612;2023-05-08T11:35:56;9.75;;;6.97;;
26598;SDS011;14240;51.064;16.612;2023-05-08T11:38:28;8.52;;;6.55;;
26598;SDS011;14240;51.064;16.612;2023-05-08T11:41:00;10.38;;;6.15;;
26598;SDS011;14240;51.064;16.612;2023-05-08T11:46:02;8.93;;;6.40;;
26598;SDS011;14240;51.064;16.612;2023-05-08T11:48:29;6.40;;;5.50;;
26598;SDS011;14240;51.064;16.612;2023-05-08T11:50:55;10.82;;;5.60;;
26598;SDS011;14240;51.064;16.612;2023-05-08T11:53:22;7.90;;;6.13;;
26598;SDS011;14240;51.064;16.612;2023-05-08T11:55:48;12.43;;;6.65;;
26598;SDS011;14240;51.064;16.612;2023-05-08T11:58:16;8.07;;;6.40;;
26598;SDS011;14240;51.064;16.612;2023-05-08T12:00:42;9.95;;;5.85;;
26598;SDS011;14240;51.064;16.612;2023-05-08T12:03:12;8.05;;;6.45;;
26598;SDS011;14240;51.064;16.612;2023-05-08T12:05:38;7.75;;;6.53;;
26598;SDS011;14240;51.064;16.612;2023-05-08T12:08:07;8.60;;;5.82;;
26598;SDS011;14240;51.064;16.612;2023-05-08T12:13:18;7.35;;;5.47;;
26598;SDS011;14240;51.064;16.612;2023-05-08T12:15:49;8.15;;;5.93;;
26598;SDS011;14240;51.064;16.612;2023-05-08T12:18:23;8.80;;;5.80;;
26598;SDS011;14240;51.064;16.612;2023-05-08T12:20:55;12.25;;;6.18;;
26598;SDS011;14240;51.064;16.612;2023-05-08T12:23:26;9.05;;;6.18;;
26598;SDS011;14240;51.064;16.612;2023-05-08T12:25:59;7.78;;;5.30;;
26598;SDS011;14240;51.064;16.612;2023-05-08T12:28:25;7.10;;;5.15;;
26598;SDS011;14240;51.064;16.612;2023-05-08T12:30:51;8.05;;;5.32;;
26598;SDS011;14240;51.064;16.612;2023-05-08T12:33:18;7.65;;;5.03;;
26598;SDS011;14240;51.064;16.612;2023-05-08T12:35:44;8.82;;;5.35;;
26598;SDS011;14240;51.064;16.612;2023-05-08T12:38:10;6.65;;;5.32;;
26598;SDS011;14240;51.064;16.612;2023-05-08T12:40:40;9.85;;;6.07;;
26598;SDS011;14240;51.064;16.612;2023-05-08T12:43:07;7.57;;;5.35;;
26598;SDS011;14240;51.064;16.612;2023-05-08T12:45:35;10.95;;;4.82;;
26598;SDS011;14240;51.064;16.612;2023-05-08T12:48:07;9.25;;;5.07;;
26598;SDS011;14240;51.064;16.612;2023-05-08T12:50:36;7.78;;;5.25;;
26598;SDS011;14240;51.064;16.612;2023-05-08T12:53:04;6.80;;;4.57;;
26598;SDS011;14240;51.064;16.612;2023-05-08T12:55:36;6.75;;;5.18;;
26598;SDS011;14240;51.064;16.612;2023-05-08T12:58:03;6.57;;;5.07;;
26598;SDS011;14240;51.064;16.612;2023-05-08T13:00:35;7.05;;;4.85;;
26598;SDS011;14240;51.064;16.612;2023-05-08T13:03:05;6.47;;;5.00;;
26598;SDS011;14240;51.064;16.612;2023-05-08T13:05:33;6.88;;;5.20;;
26598;SDS011;14240;51.064;16.612;2023-05-08T13:08:05;6.25;;;4.88;;
26598;SDS011;14240;51.064;16.612;2023-05-08T13:13:20;8.25;;;4.30;;
26598;SDS011;14240;51.064;16.612;2023-05-08T13:15:47;6.93;;;4.82;;
26598;SDS011;14240;51.064;16.612;2023-05-08T13:18:13;7.00;;;5.38;;
26598;SDS011;14240;51.064;16.612;2023-05-08T13:20:40;6.63;;;4.47;;
26598;SDS011;14240;51.064;16.612;2023-05-08T13:23:06;7.88;;;5.07;;
26598;SDS011;14240;51.064;16.612;2023-05-08T13:25:32;7.75;;;4.68;;
26598;SDS011;14240;51.064;16.612;2023-05-08T13:28:00;5.57;;;4.20;;
26598;SDS011;14240;51.064;16.612;2023-05-08T13:30:26;4.28;;;3.85;;
26598;SDS011;14240;51.064;16.612;2023-05-08T13:32:52;8.63;;;4.45;;
26598;SDS011;14240;51.064;16.612;2023-05-08T13:35:18;6.55;;;4.50;;
26598;SDS011;14240;51.064;16.612;2023-05-08T13:37:44;11.65;;;4.50;;
26598;SDS011;14240;51.064;16.612;2023-05-08T13:40:11;7.15;;;4.15;;
26598;SDS011;14240;51.064;16.612;2023-05-08T13:42:37;6.18;;;4.20;;
26598;SDS011;14240;51.064;16.612;2023-05-08T13:45:03;6.88;;;4.32;;
26598;SDS011;14240;51.064;16.612;2023-05-08T13:47:30;4.95;;;3.90;;
26598;SDS011;14240;51.064;16.612;2023-05-08T13:49:55;8.52;;;4.28;;
26598;SDS011;14240;51.064;16.612;2023-05-08T13:52:21;4.95;;;3.53;;
26598;SDS011;14240;51.064;16.612;2023-05-08T13:54:47;5.15;;;4.00;;
26598;SDS011;14240;51.064;16.612;2023-05-08T13:57:12;5.47;;;3.50;;
26598;SDS011;14240;51.064;16.612;2023-05-08T13:59:38;8.23;;;3.72;;
26598;SDS011;14240;51.064;16.612;2023-05-08T14:02:04;7.82;;;4.20;;
26598;SDS011;14240;51.064;16.612;2023-05-08T14:04:29;10.57;;;3.72;;
26598;SDS011;14240;51.064;16.612;2023-05-08T14:06:55;5.00;;;4.03;;
26598;SDS011;14240;51.064;16.612;2023-05-08T14:09:20;7.00;;;3.95;;
26598;SDS011;14240;51.064;16.612;2023-05-08T14:11:46;7.55;;;4.18;;
26598;SDS011;14240;51.064;16.612;2023-05-08T14:14:12;5.95;;;4.00;;
26598;SDS011;14240;51.064;16.612;2023-05-08T14:16:37;6.78;;;4.05;;
26598;SDS011;14240;51.064;16.612;2023-05-08T14:19:03;5.32;;;4.00;;
26598;SDS011;14240;51.064;16.612;2023-05-08T14:21:28;6.10;;;4.10;;
26598;SDS011;14240;51.064;16.612;2023-05-08T14:23:55;9.13;;;4.10;;
26598;SDS011;14240;51.064;16.612;2023-05-08T14:26:21;7.07;;;4.35;;
26598;SDS011;14240;51.064;16.612;2023-05-08T14:28:47;6.00;;;3.30;;
26598;SDS011;14240;51.064;16.612;2023-05-08T14:31:12;4.65;;;3.80;;
26598;SDS011;14240;51.064;16.612;2023-05-08T14:33:38;6.47;;;4.03;;
26598;SDS011;14240;51.064;16.612;2023-05-08T14:36:04;9.35;;;4.30;;
26598;SDS011;14240;51.064;16.612;2023-05-08T14:38:30;5.80;;;3.80;;
26598;SDS011;14240;51.064;16.612;2023-05-08T14:40:55;5.78;;;3.90;;
26598;SDS011;14240;51.064;16.612;2023-05-08T14:43:21;4.90;;;3.53;;
26598;SDS011;14240;51.064;16.612;2023-05-08T14:45:47;7.75;;;3.63;;
26598;SDS011;14240;51.064;16.612;2023-05-08T14:48:13;6.07;;;3.40;;
26598;SDS011;14240;51.064;16.612;2023-05-08T14:50:39;5.38;;;3.33;;
26598;SDS011;14240;51.064;16.612;2023-05-08T14:53:04;7.45;;;4.05;;
26598;SDS011;14240;51.064;16.612;2023-05-08T14:55:30;4.38;;;3.20;;
26598;SDS011;14240;51.064;16.612;2023-05-08T14:57:56;5.60;;;3.90;;
26598;SDS011;14240;51.064;16.612;2023-05-08T15:00:21;8.85;;;4.05;;
26598;SDS011;14240;51.064;16.612;2023-05-08T15:02:47;5.97;;;3.33;;
26598;SDS011;14240;51.064;16.612;2023-05-08T15:05:13;5.03;;;3.33;;
26598;SDS011;14240;51.064;16.612;2023-05-08T15:07:39;5.72;;;3.58;;
26598;SDS011;14240;51.064;16.612;2023-05-08T15:10:05;9.63;;;3.88;;
26598;SDS011;14240;51.064;16.612;2023-05-08T15:12:31;5.35;;;3.85;;
26598;SDS011;14240;51.064;16.612;2023-05-08T15:14:57;6.97;;;3.42;;
26598;SDS011;14240;51.064;16.612;2023-05-08T15:17:22;8.60;;;3.60;;
26598;SDS011;14240;51.064;16.612;2023-05-08T15:19:48;8.18;;;4.30;;
26598;SDS011;14240;51.064;16.612;2023-05-08T15:22:14;7.13;;;3.83;;
26598;SDS011;14240;51.064;16.612;2023-05-08T15:24:39;5.75;;;3.17;;
26598;SDS011;14240;51.064;16.612;2023-05-08T15:27:05;5.57;;;3.72;;
26598;SDS011;14240;51.064;16.612;2023-05-08T15:29:31;7.00;;;3.40;;
26598;SDS011;14240;51.064;16.612;2023-05-08T15:31:57;4.00;;;3.30;;
26598;SDS011;14240;51.064;16.612;2023-05-08T15:34:22;5.90;;;3.22;;
26598;SDS011;14240;51.064;16.612;2023-05-08T15:36:48;6.25;;;3.67;;
26598;SDS011;14240;51.064;16.612;2023-05-08T15:39:14;6.72;;;3.28;;
26598;SDS011;14240;51.064;16.612;2023-05-08T15:41:39;4.60;;;3.28;;
26598;SDS011;14240;51.064;16.612;2023-05-08T15:44:08;5.80;;;3.90;;
26598;SDS011;14240;51.064;16.612;2023-05-08T15:46:34;6.65;;;3.10;;
26598;SDS011;14240;51.064;16.612;2023-05-08T15:48:59;9.73;;;3.50;;
26598;SDS011;14240;51.064;16.612;2023-05-08T15:51:25;8.25;;;3.47;;
26598;SDS011;14240;51.064;16.612;2023-05-08T15:53:51;6.15;;;3.20;;